createdAt,value
2019-05-16T04:48:05.031Z,5.40
2019-05-16T04:52:51.760Z,5.50
2019-05-16T04:53:01.135Z,5.40
2019-05-16T04:58:13.562Z,5.50
2019-05-16T05:03:11.913Z,5.40
2019-05-16T05:16:16.421Z,5.50
2019-05-16T05:26:02.250Z,5.60
2019-05-16T05:31:23.899Z,5.60
2019-05-16T05:36:34.745Z,5.80
2019-05-16T05:41:19.901Z,6.00
2019-05-16T05:46:26.878Z,5.90
2019-05-16T05:51:27.112Z,6.10
2019-05-16T05:56:26.364Z,6.10
2019-05-16T06:01:22.947Z,6.10
2019-05-16T06:06:12.890Z,6.00
2019-05-16T06:11:27.807Z,5.90
2019-05-16T06:16:11.897Z,5.80
2019-05-16T06:21:14.310Z,6.00
2019-05-16T06:26:24.146Z,6.00
2019-05-16T06:31:17.263Z,5.90
2019-05-16T06:36:39.975Z,5.90
2019-05-16T06:41:30.425Z,6.00
2019-05-16T06:46:16.045Z,6.00
2019-05-16T06:51:04.962Z,6.10
2019-05-16T06:55:53.480Z,6.10
2019-05-16T07:00:44.108Z,6.40
2019-05-16T07:05:32.920Z,6.50
2019-05-16T07:10:22.728Z,6.50
2019-05-16T07:15:12.208Z,6.60
2019-05-16T07:20:00.669Z,6.70
2019-05-16T07:24:44.243Z,6.80
2019-05-16T07:29:32.348Z,7.00
2019-05-16T07:34:20.658Z,7.10
2019-05-16T07:39:10.731Z,7.10
2019-05-16T07:43:56.349Z,7.20
2019-05-16T07:48:44.797Z,7.40
2019-05-16T07:53:33.134Z,7.70
2019-05-16T07:58:23.637Z,7.80
2019-05-16T08:03:10.509Z,8.10
2019-05-16T08:07:56.270Z,8.30
2019-05-16T08:12:51.286Z,8.40
2019-05-16T08:17:41.516Z,8.10
2019-05-16T08:22:32.571Z,8.20
2019-05-16T08:27:21.926Z,8.00
2019-05-16T08:32:14.914Z,7.90
2019-05-16T08:37:02.975Z,7.90
2019-05-16T08:41:52.816Z,7.90
2019-05-16T08:46:53.087Z,8.10
2019-05-16T08:51:55.522Z,8.20
2019-05-16T08:56:43.740Z,8.40
2019-05-16T09:01:50.346Z,8.60
2019-05-16T09:06:31.919Z,8.80
2019-05-16T09:11:39.239Z,8.90
2019-05-16T09:16:08.836Z,8.80
2019-05-16T09:20:57.966Z,8.70
2019-05-16T09:25:48.995Z,8.80
2019-05-16T09:30:47.735Z,9.00
2019-05-16T09:35:36.842Z,9.10
2019-05-16T09:40:28.501Z,9.40
2019-05-16T09:45:17.096Z,9.50
2019-05-16T09:50:03.224Z,9.20
2019-05-16T09:55:01.082Z,9.00
2019-05-16T10:00:08.759Z,8.90
2019-05-16T10:04:57.949Z,8.80
2019-05-16T10:09:50.145Z,9.30
2019-05-16T10:15:14.362Z,9.80
2019-05-16T10:20:10.531Z,10.10
2019-05-16T10:24:59.377Z,10.90
2019-05-16T10:29:57.487Z,11.20
2019-05-16T10:34:46.694Z,11.30
2019-05-16T10:39:33.379Z,11.00
2019-05-16T10:44:38.748Z,11.00
2019-05-16T10:49:34.276Z,11.10
2019-05-16T10:54:17.900Z,11.00
2019-05-16T11:10:03.009Z,10.20
2019-05-16T11:14:44.767Z,10.20
2019-05-16T11:20:01.678Z,10.40
2019-05-16T11:29:42.455Z,10.10
2019-05-16T11:34:37.395Z,10.00
2019-05-16T11:39:57.703Z,9.90
2019-05-16T11:55:15.243Z,9.70
2019-05-16T12:00:42.106Z,9.90
2019-05-16T12:13:29.707Z,10.10
2019-05-16T12:16:22.195Z,10.10
2019-05-16T12:21:59.714Z,10.40
2019-05-16T12:27:09.481Z,10.20
2019-05-16T12:32:17.891Z,10.40
2019-05-16T12:54:56.843Z,11.10
2019-05-16T13:01:01.126Z,11.60
2019-05-16T13:06:33.535Z,11.50
2019-05-16T13:19:57.474Z,11.10
2019-05-16T14:55:02.018Z,11.60
2019-05-16T18:04:26.656Z,9.80
2019-05-16T18:16:07.252Z,9.70
